sensor_id;sensor_type;location;lat;lon;timestamp;pressure;altitude;pressure_sealevel;temperature;humidity
71567;BME280;59403;47.456;19.120;2022-10-16T00:01:38;100889.62;;;13.56;87.85
71567;BME280;59403;47.456;19.120;2022-10-16T00:04:05;100894.28;;;13.54;88.01
71567;BME280;59403;47.456;19.120;2022-10-16T00:06:33;100896.09;;;13.54;87.96
71567;BME280;59403;47.456;19.120;2022-10-16T00:09:00;100892.59;;;13.53;88.01
71567;BME280;59403;47.456;19.120;2022-10-16T00:11:29;100890.94;;;13.52;87.97
71567;BME280;59403;47.456;19.120;2022-10-16T00:14:00;100890.94;;;13.52;87.39
71567;BME280;59403;47.456;19.120;2022-10-16T00:16:28;100895.41;;;13.52;87.58
71567;BME280;59403;47.456;19.120;2022-10-16T00:18:55;100889.13;;;13.53;87.38
71567;BME280;59403;47.456;19.120;2022-10-16T00:21:25;100899.75;;;13.53;86.87
71567;BME280;59403;47.456;19.120;2022-10-16T00:23:55;100895.41;;;13.52;87.09
71567;BME280;59403;47.456;19.120;2022-10-16T00:26:22;100894.44;;;13.53;87.22
71567;BME280;59403;47.456;19.120;2022-10-16T00:28:50;100896.25;;;13.52;86.62
71567;BME280;59403;47.456;19.120;2022-10-16T00:31:19;100884.44;;;13.39;86.87
71567;BME280;59403;47.456;19.120;2022-10-16T00:33:46;100898.25;;;13.50;86.53
71567;BME280;59403;47.456;19.120;2022-10-16T00:36:15;100899.25;;;13.49;85.69
71567;BME280;59403;47.456;19.120;2022-10-16T00:38:42;100902.75;;;13.50;85.60
71567;BME280;59403;47.456;19.120;2022-10-16T00:41:12;100906.41;;;13.49;85.76
71567;BME280;59403;47.456;19.120;2022-10-16T00:43:41;100909.22;;;13.47;85.62
71567;BME280;59403;47.456;19.120;2022-10-16T00:46:17;100913.69;;;13.47;85.43
71567;BME280;59403;47.456;19.120;2022-10-16T00:48:50;100912.06;;;13.46;85.50
71567;BME280;59403;47.456;19.120;2022-10-16T00:51:20;100919.19;;;13.45;85.64
71567;BME280;59403;47.456;19.120;2022-10-16T00:53:48;100913.88;;;13.45;85.47
71567;BME280;59403;47.456;19.120;2022-10-16T00:56:17;100914.03;;;13.44;84.81
71567;BME280;59403;47.456;19.120;2022-10-16T00:58:44;100912.53;;;13.41;85.23
71567;BME280;59403;47.456;19.120;2022-10-16T01:01:12;100916.19;;;13.40;85.14
71567;BME280;59403;47.456;19.120;2022-10-16T01:03:38;100918.00;;;13.40;84.76
71567;BME280;59403;47.456;19.120;2022-10-16T01:06:21;100919.00;;;13.39;84.55
71567;BME280;59403;47.456;19.120;2022-10-16T01:08:58;100908.31;;;13.31;83.60
71567;BME280;59403;47.456;19.120;2022-10-16T01:11:33;100921.50;;;13.32;84.63
71567;BME280;59403;47.456;19.120;2022-10-16T01:14:07;100922.97;;;13.27;85.12
71567;BME280;59403;47.456;19.120;2022-10-16T01:16:41;100919.81;;;13.23;85.27
71567;BME280;59403;47.456;19.120;2022-10-16T01:19:15;100930.25;;;13.17;85.76
71567;BME280;59403;47.456;19.120;2022-10-16T01:21:45;100930.19;;;13.09;86.30
71567;BME280;59403;47.456;19.120;2022-10-16T01:24:19;100929.31;;;13.00;86.79
71567;BME280;59403;47.456;19.120;2022-10-16T01:27:13;100925.78;;;12.92;86.99
71567;BME280;59403;47.456;19.120;2022-10-16T01:29:48;100940.84;;;12.83;87.12
71567;BME280;59403;47.456;19.120;2022-10-16T01:32:20;100939.81;;;12.76;87.40
71567;BME280;59403;47.456;19.120;2022-10-16T01:34:51;100941.75;;;12.66;87.92
71567;BME280;59403;47.456;19.120;2022-10-16T01:37:27;100935.56;;;12.57;88.31
71567;BME280;59403;47.456;19.120;2022-10-16T01:39:59;100934.00;;;12.47;88.71
71567;BME280;59403;47.456;19.120;2022-10-16T01:42:31;100932.28;;;12.38;88.93
71567;BME280;59403;47.456;19.120;2022-10-16T01:45:01;100934.06;;;12.37;89.10
71567;BME280;59403;47.456;19.120;2022-10-16T01:47:30;100941.16;;;12.29;89.32
71567;BME280;59403;47.456;19.120;2022-10-16T01:49:59;100947.53;;;12.18;89.76
71567;BME280;59403;47.456;19.120;2022-10-16T01:52:29;100954.16;;;12.14;90.09
71567;BME280;59403;47.456;19.120;2022-10-16T01:54:57;100959.37;;;12.06;90.39
71567;BME280;59403;47.456;19.120;2022-10-16T01:57:26;100956.22;;;12.03;90.39
71567;BME280;59403;47.456;19.120;2022-10-16T02:00:00;100961.59;;;11.93;90.97
71567;BME280;59403;47.456;19.120;2022-10-16T02:05:30;100962.81;;;11.81;91.50
71567;BME280;59403;47.456;19.120;2022-10-16T02:08:02;100962.56;;;11.75;91.61
71567;BME280;59403;47.456;19.120;2022-10-16T02:10:30;100962.34;;;11.68;92.03
71567;BME280;59403;47.456;19.120;2022-10-16T02:13:00;100959.00;;;11.66;92.02
71567;BME280;59403;47.456;19.120;2022-10-16T02:15:29;100962.53;;;11.57;92.43
71567;BME280;59403;47.456;19.120;2022-10-16T02:17:56;100965.09;;;11.49;92.81
71567;BME280;59403;47.456;19.120;2022-10-16T02:20:29;100966.09;;;11.48;92.95
71567;BME280;59403;47.456;19.120;2022-10-16T02:23:01;100966.88;;;11.48;93.12
71567;BME280;59403;47.456;19.120;2022-10-16T02:25:32;100972.41;;;11.37;93.29
71567;BME280;59403;47.456;19.120;2022-10-16T02:28:05;100965.72;;;11.33;93.37
71567;BME280;59403;47.456;19.120;2022-10-16T02:30:36;100970.06;;;11.34;93.17
71567;BME280;59403;47.456;19.120;2022-10-16T02:33:08;100974.84;;;11.31;93.18
71567;BME280;59403;47.456;19.120;2022-10-16T02:35:37;100977.22;;;11.24;93.44
71567;BME280;59403;47.456;19.120;2022-10-16T02:38:05;100977.81;;;11.18;93.65
71567;BME280;59403;47.456;19.120;2022-10-16T02:40:33;100980.06;;;11.13;93.78
71567;BME280;59403;47.456;19.120;2022-10-16T02:43:03;100980.22;;;11.12;93.85
71567;BME280;59403;47.456;19.120;2022-10-16T02:45:31;100979.13;;;11.05;93.90
71567;BME280;59403;47.456;19.120;2022-10-16T02:48:01;100984.44;;;11.05;94.06
71567;BME280;59403;47.456;19.120;2022-10-16T02:50:28;100983.31;;;11.07;93.92
71567;BME280;59403;47.456;19.120;2022-10-16T02:52:55;100977.59;;;11.02;94.04
71567;BME280;59403;47.456;19.120;2022-10-16T02:55:22;100979.00;;;10.97;94.34
71567;BME280;59403;47.456;19.120;2022-10-16T02:57:49;100976.81;;;10.92;94.41
71567;BME280;59403;47.456;19.120;2022-10-16T03:00:16;100979.59;;;10.91;94.44
71567;BME280;59403;47.456;19.120;2022-10-16T03:02:44;100988.53;;;10.90;94.46
71567;BME280;59403;47.456;19.120;2022-10-16T03:05:13;100986.88;;;10.89;94.45
71567;BME280;59403;47.456;19.120;2022-10-16T03:07:40;100984.50;;;10.86;94.44
71567;BME280;59403;47.456;19.120;2022-10-16T03:10:07;100983.97;;;10.82;94.35
71567;BME280;59403;47.456;19.120;2022-10-16T03:12:34;100986.63;;;10.82;94.52
71567;BME280;59403;47.456;19.120;2022-10-16T03:15:01;100991.91;;;10.82;94.50
71567;BME280;59403;47.456;19.120;2022-10-16T03:17:28;100996.37;;;10.72;94.66
71567;BME280;59403;47.456;19.120;2022-10-16T03:19:55;101001.81;;;10.71;94.74
71567;BME280;59403;47.456;19.120;2022-10-16T03:22:23;100995.97;;;10.67;94.77
71567;BME280;59403;47.456;19.120;2022-10-16T03:24:50;101001.28;;;10.67;94.70
71567;BME280;59403;47.456;19.120;2022-10-16T03:27:18;101001.72;;;10.63;94.78
71567;BME280;59403;47.456;19.120;2022-10-16T03:29:45;101000.16;;;10.60;94.72
71567;BME280;59403;47.456;19.120;2022-10-16T03:32:12;101008.41;;;10.57;94.69
71567;BME280;59403;47.456;19.120;2022-10-16T03:34:39;101005.91;;;10.56;94.62
71567;BME280;59403;47.456;19.120;2022-10-16T03:37:06;101011.59;;;10.51;94.73
71567;BME280;59403;47.456;19.120;2022-10-16T03:39:34;101010.53;;;10.44;94.95
71567;BME280;59403;47.456;19.120;2022-10-16T03:42:01;101013.88;;;10.37;95.34
71567;BME280;59403;47.456;19.120;2022-10-16T03:44:28;101016.81;;;10.34;95.29
71567;BME280;59403;47.456;19.120;2022-10-16T03:46:55;101025.69;;;10.32;95.56
71567;BME280;59403;47.456;19.120;2022-10-16T03:49:21;101019.44;;;10.34;95.42
71567;BME280;59403;47.456;19.120;2022-10-16T03:51:48;101017.75;;;10.32;95.44
71567;BME280;59403;47.456;19.120;2022-10-16T03:54:15;101030.59;;;10.27;95.54
71567;BME280;59403;47.456;19.120;2022-10-16T03:56:43;101032.81;;;10.22;95.69
71567;BME280;59403;47.456;19.120;2022-10-16T03:59:10;101034.19;;;10.17;95.81
71567;BME280;59403;47.456;19.120;2022-10-16T04:01:37;101035.34;;;10.14;95.84
71567;BME280;59403;47.456;19.120;2022-10-16T04:04:04;101031.97;;;10.12;95.76
71567;BME280;59403;47.456;19.120;2022-10-16T04:06:31;101038.62;;;10.07;96.04
71567;BME280;59403;47.456;19.120;2022-10-16T04:08:58;101031.69;;;10.06;95.91
71567;BME280;59403;47.456;19.120;2022-10-16T04:11:25;101042.38;;;10.04;95.93
71567;BME280;59403;47.456;19.120;2022-10-16T04:13:53;101043.91;;;10.07;95.83
71567;BME280;59403;47.456;19.120;2022-10-16T04:16:20;101038.06;;;10.03;95.81
71567;BME280;59403;47.456;19.120;2022-10-16T04:18:47;101036.50;;;10.01;96.08
71567;BME280;59403;47.456;19.120;2022-10-16T04:21:14;101041.41;;;10.05;95.74
71567;BME280;59403;47.456;19.120;2022-10-16T04:23:41;101048.22;;;9.98;95.82
71567;BME280;59403;47.456;19.120;2022-10-16T04:26:08;101040.81;;;9.92;96.12
71567;BME280;59403;47.456;19.120;2022-10-16T04:28:35;101042.66;;;9.92;96.12
71567;BME280;59403;47.456;19.120;2022-10-16T04:31:05;101045.84;;;9.86;96.26
71567;BME280;59403;47.456;19.120;2022-10-16T04:33:32;101049.47;;;9.85;96.21
71567;BME280;59403;47.456;19.120;2022-10-16T04:36:00;101037.91;;;9.86;96.27
71567;BME280;59403;47.456;19.120;2022-10-16T04:38:27;101034.69;;;9.82;96.31
71567;BME280;59403;47.456;19.120;2022-10-16T04:40:54;101033.16;;;9.80;96.20
71567;BME280;59403;47.456;19.120;2022-10-16T04:43:22;101037.75;;;9.87;95.99
71567;BME280;59403;47.456;19.120;2022-10-16T04:45:49;101048.06;;;9.81;95.97
71567;BME280;59403;47.456;19.120;2022-10-16T04:48:18;101042.34;;;9.76;96.15
71567;BME280;59403;47.456;19.120;2022-10-16T04:50:45;101047.34;;;9.69;96.42
71567;BME280;59403;47.456;19.120;2022-10-16T04:53:12;101054.44;;;9.69;96.43
71567;BME280;59403;47.456;19.120;2022-10-16T04:55:39;101058.88;;;9.68;96.25
71567;BME280;59403;47.456;19.120;2022-10-16T04:58:06;101058.72;;;9.60;96.46
71567;BME280;59403;47.456;19.120;2022-10-16T05:00:33;101056.78;;;9.62;96.57
71567;BME280;59403;47.456;19.120;2022-10-16T05:03:02;101062.50;;;9.67;96.16
71567;BME280;59403;47.456;19.120;2022-10-16T05:05:34;101070.81;;;9.63;96.19
71567;BME280;59403;47.456;19.120;2022-10-16T05:08:01;101079.31;;;9.66;95.93
71567;BME280;59403;47.456;19.120;2022-10-16T05:10:28;101080.16;;;9.57;96.30
71567;BME280;59403;47.456;19.120;2022-10-16T05:12:55;101083.19;;;9.53;96.46
71567;BME280;59403;47.456;19.120;2022-10-16T05:15:22;101075.09;;;9.54;96.25
71567;BME280;59403;47.456;19.120;2022-10-16T05:17:52;101074.16;;;9.55;96.29
71567;BME280;59403;47.456;19.120;2022-10-16T05:20:19;101066.38;;;9.54;96.28
71567;BME280;59403;47.456;19.120;2022-10-16T05:25:15;101080.00;;;9.59;96.42
71567;BME280;59403;47.456;19.120;2022-10-16T05:27:42;101080.25;;;9.56;96.50
71567;BME280;59403;47.456;19.120;2022-10-16T05:30:09;101085.44;;;9.57;96.60
71567;BME280;59403;47.456;19.120;2022-10-16T05:32:36;101089.19;;;9.55;96.79
71567;BME280;59403;47.456;19.120;2022-10-16T05:35:04;101080.16;;;9.57;96.70
71567;BME280;59403;47.456;19.120;2022-10-16T05:37:31;101084.47;;;9.58;96.79
71567;BME280;59403;47.456;19.120;2022-10-16T05:39:58;101084.16;;;9.52;96.73
71567;BME280;59403;47.456;19.120;2022-10-16T05:42:27;101096.69;;;9.59;96.65
71567;BME280;59403;47.456;19.120;2022-10-16T05:44:54;101100.91;;;9.62;96.82
71567;BME280;59403;47.456;19.120;2022-10-16T05:47:21;101102.69;;;9.61;96.67
71567;BME280;59403;47.456;19.120;2022-10-16T05:49:48;101098.13;;;9.63;96.77
71567;BME280;59403;47.456;19.120;2022-10-16T05:52:14;101101.19;;;9.68;96.66
71567;BME280;59403;47.456;19.120;2022-10-16T05:54:41;101108.16;;;9.69;96.61
71567;BME280;59403;47.456;19.120;2022-10-16T05:57:08;101100.91;;;9.71;96.70
71567;BME280;59403;47.456;19.120;2022-10-16T05:59:37;101103.31;;;9.74;96.60
71567;BME280;59403;47.456;19.120;2022-10-16T06:02:03;101103.75;;;9.79;96.83
71567;BME280;59403;47.456;19.120;2022-10-16T06:04:30;101110.44;;;9.83;96.87
71567;BME280;59403;47.456;19.120;2022-10-16T06:06:58;101110.88;;;9.88;96.42
71567;BME280;59403;47.456;19.120;2022-10-16T06:09:26;101120.63;;;9.97;96.32
71567;BME280;59403;47.456;19.120;2022-10-16T06:11:53;101121.66;;;10.06;95.27
71567;BME280;59403;47.456;19.120;2022-10-16T06:14:20;101123.91;;;10.10;95.61
71567;BME280;59403;47.456;19.120;2022-10-16T06:16:48;101129.34;;;10.18;95.40
71567;BME280;59403;47.456;19.120;2022-10-16T06:19:15;101128.81;;;10.24;94.87
71567;BME280;59403;47.456;19.120;2022-10-16T06:21:43;101127.16;;;10.33;93.98
71567;BME280;59403;47.456;19.120;2022-10-16T06:24:10;101130.94;;;10.40;93.72
71567;BME280;59403;47.456;19.120;2022-10-16T06:26:37;101131.09;;;10.58;92.49
71567;BME280;59403;47.456;19.120;2022-10-16T06:29:04;101135.41;;;10.68;91.98
71567;BME280;59403;47.456;19.120;2022-10-16T06:31:31;101143.34;;;10.78;90.93
71567;BME280;59403;47.456;19.120;2022-10-16T06:34:00;101136.34;;;10.86;90.31
71567;BME280;59403;47.456;19.120;2022-10-16T06:36:27;101134.69;;;10.95;89.29
71567;BME280;59403;47.456;19.120;2022-10-16T06:38:55;101148.34;;;11.00;89.38
71567;BME280;59403;47.456;19.120;2022-10-16T06:41:23;101154.06;;;11.05;88.86
71567;BME280;59403;47.456;19.120;2022-10-16T06:43:49;101168.84;;;11.07;88.82
71567;BME280;59403;47.456;19.120;2022-10-16T06:46:20;101167.59;;;11.11;88.95
71567;BME280;59403;47.456;19.120;2022-10-16T06:48:47;101173.72;;;11.21;87.62
71567;BME280;59403;47.456;19.120;2022-10-16T06:51:17;101171.91;;;11.22;88.39
71567;BME280;59403;47.456;19.120;2022-10-16T06:53:45;101179.28;;;11.28;88.33
71567;BME280;59403;47.456;19.120;2022-10-16T06:56:15;101173.72;;;11.31;86.86
71567;BME280;59403;47.456;19.120;2022-10-16T06:58:43;101171.31;;;11.37;87.26
71567;BME280;59403;47.456;19.120;2022-10-16T07:01:11;101182.87;;;11.46;86.23
71567;BME280;59403;47.456;19.120;2022-10-16T07:03:39;101181.06;;;11.47;86.73
71567;BME280;59403;47.456;19.120;2022-10-16T07:06:07;101184.53;;;11.57;85.98
71567;BME280;59403;47.456;19.120;2022-10-16T07:08:36;101186.59;;;11.63;85.96
71567;BME280;59403;47.456;19.120;2022-10-16T07:11:06;101191.66;;;11.66;85.60
71567;BME280;59403;47.456;19.120;2022-10-16T07:13:33;101194.25;;;11.85;83.88
71567;BME280;59403;47.456;19.120;2022-10-16T07:16:04;101195.38;;;11.82;83.80
71567;BME280;59403;47.456;19.120;2022-10-16T07:18:31;101197.19;;;11.82;84.48
71567;BME280;59403;47.456;19.120;2022-10-16T07:21:03;101206.37;;;11.87;84.72
71567;BME280;59403;47.456;19.120;2022-10-16T07:23:30;101213.47;;;11.96;84.99
71567;BME280;59403;47.456;19.120;2022-10-16T07:25:58;101209.41;;;12.02;84.13
71567;BME280;59403;47.456;19.120;2022-10-16T07:28:25;101213.41;;;12.06;83.03
71567;BME280;59403;47.456;19.120;2022-10-16T07:30:52;101211.03;;;12.12;83.35
71567;BME280;59403;47.456;19.120;2022-10-16T07:33:19;101214.62;;;12.21;82.68
71567;BME280;59403;47.456;19.120;2022-10-16T07:35:50;101221.84;;;12.28;81.11
71567;BME280;59403;47.456;19.120;2022-10-16T07:40:44;101232.72;;;12.35;80.60
71567;BME280;59403;47.456;19.120;2022-10-16T07:43:13;101231.34;;;12.31;81.68
71567;BME280;59403;47.456;19.120;2022-10-16T07:45:47;101238.47;;;12.30;81.45
71567;BME280;59403;47.456;19.120;2022-10-16T07:48:15;101239.84;;;12.34;81.63
71567;BME280;59403;47.456;19.120;2022-10-16T07:50:42;101235.16;;;12.46;80.55
71567;BME280;59403;47.456;19.120;2022-10-16T07:53:09;101246.63;;;12.46;79.91
71567;BME280;59403;47.456;19.120;2022-10-16T07:55:36;101249.09;;;12.57;80.15
71567;BME280;59403;47.456;19.120;2022-10-16T07:58:04;101252.06;;;12.72;79.24
71567;BME280;59403;47.456;19.120;2022-10-16T08:00:32;101246.53;;;12.66;79.75
71567;BME280;59403;47.456;19.120;2022-10-16T08:02:59;101258.78;;;12.76;79.07
71567;BME280;59403;47.456;19.120;2022-10-16T08:05:26;101248.97;;;12.77;78.76
71567;BME280;59403;47.456;19.120;2022-10-16T08:07:53;101250.75;;;12.86;79.10
71567;BME280;59403;47.456;19.120;2022-10-16T08:10:23;101243.37;;;12.97;77.87
71567;BME280;59403;47.456;19.120;2022-10-16T08:12:51;101255.50;;;13.00;78.98
71567;BME280;59403;47.456;19.120;2022-10-16T08:15:18;101255.50;;;13.09;77.89
71567;BME280;59403;47.456;19.120;2022-10-16T08:17:57;101256.78;;;13.23;77.10
71567;BME280;59403;47.456;19.120;2022-10-16T08:20:25;101252.88;;;13.35;75.76
71567;BME280;59403;47.456;19.120;2022-10-16T08:22:52;101260.53;;;13.38;76.75
71567;BME280;59403;47.456;19.120;2022-10-16T08:25:19;101256.22;;;13.37;76.98
71567;BME280;59403;47.456;19.120;2022-10-16T08:27:52;101261.06;;;13.41;76.92
71567;BME280;59403;47.456;19.120;2022-10-16T08:30:20;101263.13;;;13.47;76.42
71567;BME280;59403;47.456;19.120;2022-10-16T08:32:47;101273.31;;;13.52;76.47
71567;BME280;59403;47.456;19.120;2022-10-16T08:35:16;101270.63;;;13.52;76.40
71567;BME280;59403;47.456;19.120;2022-10-16T08:37:43;101280.69;;;13.58;77.63
71567;BME280;59403;47.456;19.120;2022-10-16T08:40:17;101280.13;;;13.72;75.75
71567;BME280;59403;47.456;19.120;2022-10-16T08:43:18;101275.84;;;13.79;74.20
71567;BME280;59403;47.456;19.120;2022-10-16T08:46:15;101273.66;;;14.00;74.09
71567;BME280;59403;47.456;19.120;2022-10-16T08:48:46;101273.66;;;14.00;74.14
71567;BME280;59403;47.456;19.120;2022-10-16T08:51:21;101275.34;;;14.09;74.61
71567;BME280;59403;47.456;19.120;2022-10-16T08:56:17;101282.59;;;14.25;73.40
71567;BME280;59403;47.456;19.120;2022-10-16T08:58:45;101279.00;;;14.26;73.20
71567;BME280;59403;47.456;19.120;2022-10-16T09:01:14;101280.06;;;14.41;73.58
71567;BME280;59403;47.456;19.120;2022-10-16T09:03:56;101282.44;;;14.52;72.68
71567;BME280;59403;47.456;19.120;2022-10-16T09:06:41;101282.66;;;14.66;71.45
71567;BME280;59403;47.456;19.120;2022-10-16T09:12:12;101279.34;;;14.80;71.61
71567;BME280;59403;47.456;19.120;2022-10-16T09:14:52;101287.41;;;14.89;71.06
71567;BME280;59403;47.456;19.120;2022-10-16T09:17:40;101285.91;;;14.94;70.69
71567;BME280;59403;47.456;19.120;2022-10-16T09:20:19;101286.28;;;15.07;70.54
71567;BME280;59403;47.456;19.120;2022-10-16T09:22:48;101297.09;;;15.14;70.15
71567;BME280;59403;47.456;19.120;2022-10-16T09:25:16;101286.62;;;15.20;69.45
71567;BME280;59403;47.456;19.120;2022-10-16T09:27:46;101279.09;;;15.16;70.50
71567;BME280;59403;47.456;19.120;2022-10-16T09:30:17;101284.50;;;15.40;68.88
71567;BME280;59403;47.456;19.120;2022-10-16T09:32:46;101279.31;;;15.46;68.98
71567;BME280;59403;47.456;19.120;2022-10-16T09:35:16;101284.84;;;15.53;68.39
71567;BME280;59403;47.456;19.120;2022-10-16T09:37:49;101280.50;;;15.60;68.37
71567;BME280;59403;47.456;19.120;2022-10-16T09:40:25;101286.69;;;15.68;69.19
71567;BME280;59403;47.456;19.120;2022-10-16T09:42:58;101281.66;;;15.89;69.24
71567;BME280;59403;47.456;19.120;2022-10-16T09:45:27;101277.63;;;16.02;68.64
71567;BME280;59403;47.456;19.120;2022-10-16T09:47:54;101272.59;;;15.99;68.24
71567;BME280;59403;47.456;19.120;2022-10-16T09:50:23;101279.44;;;16.01;66.15
71567;BME280;59403;47.456;19.120;2022-10-16T09:53:04;101282.09;;;16.17;67.32
71567;BME280;59403;47.456;19.120;2022-10-16T09:55:31;101289.66;;;16.44;65.47
71567;BME280;59403;47.456;19.120;2022-10-16T09:57:58;101296.03;;;16.43;65.92
71567;BME280;59403;47.456;19.120;2022-10-16T10:00:25;101297.03;;;16.50;65.86
71567;BME280;59403;47.456;19.120;2022-10-16T10:02:53;101301.31;;;16.59;66.37
71567;BME280;59403;47.456;19.120;2022-10-16T10:05:22;101290.06;;;16.72;66.61
71567;BME280;59403;47.456;19.120;2022-10-16T10:07:57;101298.09;;;16.80;65.61
71567;BME280;59403;47.456;19.120;2022-10-16T10:10:26;101292.97;;;16.93;63.63
71567;BME280;59403;47.456;19.120;2022-10-16T10:12:53;101295.84;;;16.91;64.41
71567;BME280;59403;47.456;19.120;2022-10-16T10:15:21;101298.44;;;16.99;65.51
71567;BME280;59403;47.456;19.120;2022-10-16T10:17:50;101293.88;;;17.08;64.42
71567;BME280;59403;47.456;19.120;2022-10-16T10:20:26;101292.72;;;17.11;64.57
71567;BME280;59403;47.456;19.120;2022-10-16T10:22:55;101295.97;;;17.21;64.50
71567;BME280;59403;47.456;19.120;2022-10-16T10:25:43;101286.53;;;17.33;64.28
71567;BME280;59403;47.456;19.120;2022-10-16T10:28:30;101280.66;;;17.37;63.25
71567;BME280;59403;47.456;19.120;2022-10-16T10:31:03;101267.37;;;17.44;61.52
71567;BME280;59403;47.456;19.120;2022-10-16T10:33:40;101266.50;;;17.51;63.75
71567;BME280;59403;47.456;19.120;2022-10-16T10:36:16;101260.22;;;17.59;61.29
71567;BME280;59403;47.456;19.120;2022-10-16T10:38:51;101260.50;;;17.64;61.70
71567;BME280;59403;47.456;19.120;2022-10-16T10:41:44;101273.56;;;17.67;63.53
71567;BME280;59403;47.456;19.120;2022-10-16T10:44:26;101269.78;;;17.76;62.04
71567;BME280;59403;47.456;19.120;2022-10-16T10:47:01;101264.81;;;17.87;61.75
71567;BME280;59403;47.456;19.120;2022-10-16T10:49:41;101257.91;;;17.93;61.39
71567;BME280;59403;47.456;19.120;2022-10-16T10:52:26;101267.50;;;18.17;60.02
71567;BME280;59403;47.456;19.120;2022-10-16T10:55:02;101258.62;;;18.16;60.21
71567;BME280;59403;47.456;19.120;2022-10-16T10:57:39;101255.59;;;18.19;60.46
71567;BME280;59403;47.456;19.120;2022-10-16T11:00:19;101253.53;;;18.36;60.34
71567;BME280;59403;47.456;19.120;2022-10-16T11:02:52;101251.34;;;18.54;57.80
71567;BME280;59403;47.456;19.120;2022-10-16T11:05:33;101254.56;;;18.49;58.99
71567;BME280;59403;47.456;19.120;2022-10-16T11:08:09;101256.41;;;18.49;59.17
71567;BME280;59403;47.456;19.120;2022-10-16T11:10:45;101252.16;;;18.54;59.54
71567;BME280;59403;47.456;19.120;2022-10-16T11:13:26;101256.59;;;18.62;60.02
71567;BME280;59403;47.456;19.120;2022-10-16T11:15:58;101254.56;;;18.64;58.48
71567;BME280;59403;47.456;19.120;2022-10-16T11:18:32;101259.28;;;18.62;58.71
71567;BME280;59403;47.456;19.120;2022-10-16T11:21:04;101247.63;;;18.55;56.90
71567;BME280;59403;47.456;19.120;2022-10-16T11:23:38;101245.75;;;18.70;58.43
71567;BME280;59403;47.456;19.120;2022-10-16T11:26:15;101245.97;;;18.89;57.53
71567;BME280;59403;47.456;19.120;2022-10-16T11:28:47;101239.81;;;18.74;59.89
71567;BME280;59403;47.456;19.120;2022-10-16T11:31:19;101238.59;;;18.77;59.83
71567;BME280;59403;47.456;19.120;2022-10-16T11:33:52;101239.69;;;18.82;58.21
71567;BME280;59403;47.456;19.120;2022-10-16T11:36:23;101232.69;;;18.81;58.26
71567;BME280;59403;47.456;19.120;2022-10-16T11:38:56;101235.62;;;18.86;57.65
71567;BME280;59403;47.456;19.120;2022-10-16T11:41:32;101235.25;;;18.89;55.29
71567;BME280;59403;47.456;19.120;2022-10-16T11:44:15;101239.06;;;19.01;56.66
71567;BME280;59403;47.456;19.120;2022-10-16T11:46:48;101229.87;;;18.89;57.15
71567;BME280;59403;47.456;19.120;2022-10-16T11:49:21;101228.53;;;19.00;56.33
71567;BME280;59403;47.456;19.120;2022-10-16T11:51:55;101230.03;;;19.02;55.25
71567;BME280;59403;47.456;19.120;2022-10-16T11:54:28;101234.59;;;19.08;56.29
71567;BME280;59403;47.456;19.120;2022-10-16T11:57:07;101230.03;;;19.02;57.31
71567;BME280;59403;47.456;19.120;2022-10-16T11:59:41;101238.69;;;19.04;56.63
71567;BME280;59403;47.456;19.120;2022-10-16T12:02:31;101231.91;;;19.08;55.71
71567;BME280;59403;47.456;19.120;2022-10-16T12:05:13;101231.91;;;19.08;56.25
71567;BME280;59403;47.456;19.120;2022-10-16T12:07:48;101235.84;;;19.06;57.12
71567;BME280;59403;47.456;19.120;2022-10-16T12:10:20;101233.56;;;19.09;56.53
71567;BME280;59403;47.456;19.120;2022-10-16T12:12:49;101229.50;;;19.13;57.33
71567;BME280;59403;47.456;19.120;2022-10-16T12:15:22;101223.56;;;19.18;57.43
71567;BME280;59403;47.456;19.120;2022-10-16T12:17:50;101226.41;;;19.16;56.17
71567;BME280;59403;47.456;19.120;2022-10-16T12:20:35;101221.97;;;19.02;57.03
71567;BME280;59403;47.456;19.120;2022-10-16T12:23:04;101222.19;;;18.86;58.48
71567;BME280;59403;47.456;19.120;2022-10-16T12:25:33;101222.59;;;18.83;57.27
71567;BME280;59403;47.456;19.120;2022-10-16T12:28:04;101216.84;;;18.86;57.16
71567;BME280;59403;47.456;19.120;2022-10-16T12:30:34;101209.34;;;19.03;56.78
71567;BME280;59403;47.456;19.120;2022-10-16T12:33:03;101206.41;;;19.19;56.96
71567;BME280;59403;47.456;19.120;2022-10-16T12:35:33;101211.12;;;19.17;57.15
71567;BME280;59403;47.456;19.120;2022-10-16T12:38:15;101206.66;;;19.24;55.27
71567;BME280;59403;47.456;19.120;2022-10-16T12:40:44;101207.81;;;19.15;55.21
71567;BME280;59403;47.456;19.120;2022-10-16T12:43:25;101203.53;;;19.20;56.17
71567;BME280;59403;47.456;19.120;2022-10-16T12:46:05;101199.13;;;19.34;53.97
71567;BME280;59403;47.456;19.120;2022-10-16T12:48:46;101206.81;;;19.37;54.61
71567;BME280;59403;47.456;19.120;2022-10-16T12:51:23;101206.91;;;19.29;55.08
71567;BME280;59403;47.456;19.120;2022-10-16T12:53:58;101215.44;;;19.33;53.85
71567;BME280;59403;47.456;19.120;2022-10-16T12:56:35;101204.56;;;19.19;54.90
71567;BME280;59403;47.456;19.120;2022-10-16T12:59:12;101210.28;;;19.31;53.50
71567;BME280;59403;47.456;19.120;2022-10-16T13:01:55;101217.00;;;19.27;55.11
71567;BME280;59403;47.456;19.120;2022-10-16T13:04:47;101210.13;;;19.18;53.89
71567;BME280;59403;47.456;19.120;2022-10-16T13:07:43;101210.37;;;19.23;56.20
71567;BME280;59403;47.456;19.120;2022-10-16T13:10:22;101214.81;;;19.31;55.45
71567;BME280;59403;47.456;19.120;2022-10-16T13:13:09;101215.03;;;19.36;53.90